createdAt,value
2022-09-03T00:02:34.179Z,51.00
2022-09-03T00:05:40.633Z,51.68
2022-09-03T00:08:46.809Z,51.64
2022-09-03T00:11:52.788Z,51.62
2022-09-03T00:14:56.290Z,51.55
2022-09-03T00:18:00.704Z,51.95
2022-09-03T00:21:11.925Z,52.08
2022-09-03T00:24:15.521Z,52.04
2022-09-03T00:27:20.804Z,52.19
2022-09-03T00:30:24.662Z,52.35
2022-09-03T00:33:28.258Z,52.49
2022-09-03T00:36:34.063Z,52.56
2022-09-03T00:39:36.156Z,52.40
2022-09-03T00:42:46.014Z,52.52
2022-09-03T00:45:54.136Z,52.64
2022-09-03T00:49:07.307Z,52.66
2022-09-03T00:52:14.090Z,52.93
2022-09-03T00:55:22.748Z,53.04
2022-09-03T00:58:33.854Z,53.20
2022-09-03T01:01:40.196Z,53.33
2022-09-03T01:04:51.860Z,53.39
2022-09-03T01:07:59.001Z,53.52
2022-09-03T01:11:10.225Z,53.44
2022-09-03T01:14:17.517Z,53.65
2022-09-03T01:17:24.051Z,53.64
2022-09-03T01:20:47.429Z,54.02
2022-09-03T01:23:58.272Z,53.98
2022-09-03T01:27:11.127Z,54.20
2022-09-03T01:30:18.160Z,54.41
2022-09-03T01:33:23.156Z,54.00
2022-09-03T01:36:29.156Z,54.23
2022-09-03T01:39:38.560Z,54.42
2022-09-03T01:42:49.501Z,54.14
2022-09-03T01:46:00.705Z,54.45
2022-09-03T01:49:07.194Z,54.49
2022-09-03T01:52:12.345Z,54.63
2022-09-03T01:55:24.150Z,54.82
2022-09-03T01:58:29.518Z,54.93
2022-09-03T02:01:33.998Z,54.99
2022-09-03T02:04:38.305Z,55.24
2022-09-03T02:07:40.965Z,55.33
2022-09-03T02:10:44.459Z,55.54
2022-09-03T02:13:48.831Z,55.44
2022-09-03T02:16:51.961Z,55.63
2022-09-03T02:19:53.898Z,55.80
2022-09-03T02:22:56.403Z,55.98
2022-09-03T02:25:58.879Z,56.41
2022-09-03T02:29:01.814Z,56.28
2022-09-03T02:32:05.327Z,56.77
2022-09-03T02:35:07.769Z,56.65
2022-09-03T02:38:10.462Z,56.49
2022-09-03T02:41:15.498Z,56.78
2022-09-03T02:44:24.156Z,57.04
2022-09-03T02:47:31.493Z,57.13
2022-09-03T02:50:41.105Z,57.43
2022-09-03T02:53:42.913Z,57.75
2022-09-03T02:56:45.447Z,57.99
2022-09-03T02:59:47.612Z,57.93
2022-09-03T03:02:51.004Z,58.20
2022-09-03T03:05:53.778Z,58.56
2022-09-03T03:08:56.030Z,58.88
2022-09-03T03:11:57.616Z,58.48
2022-09-03T03:14:59.346Z,58.96
2022-09-03T03:18:05.015Z,58.75
2022-09-03T03:21:07.311Z,59.33
2022-09-03T03:24:09.154Z,59.42
2022-09-03T03:27:11.417Z,59.03
2022-09-03T03:30:13.586Z,59.05
2022-09-03T03:33:16.725Z,58.84
2022-09-03T03:36:18.790Z,59.47
2022-09-03T03:39:21.282Z,59.80
2022-09-03T03:42:24.373Z,59.72
2022-09-03T03:45:26.252Z,59.64
2022-09-03T03:48:29.466Z,60.32
2022-09-03T03:51:31.001Z,60.01
2022-09-03T03:54:32.900Z,60.64
2022-09-03T03:57:34.590Z,60.22
2022-09-03T04:00:38.417Z,60.45
2022-09-03T04:03:42.215Z,60.26
2022-09-03T04:06:44.056Z,60.45
2022-09-03T04:09:49.644Z,60.38
2022-09-03T04:12:54.429Z,60.57
2022-09-03T04:16:00.370Z,61.34
2022-09-03T04:19:03.381Z,61.42
2022-09-03T04:22:04.959Z,61.57
2022-09-03T04:25:06.810Z,61.24
2022-09-03T04:28:08.897Z,61.13
2022-09-03T04:31:14.447Z,61.46
2022-09-03T04:34:17.882Z,61.59
2022-09-03T04:37:20.381Z,61.49
2022-09-03T04:40:22.190Z,62.18
2022-09-03T04:43:23.957Z,62.45
2022-09-03T04:46:28.633Z,62.31
2022-09-03T04:49:31.991Z,62.33
2022-09-03T04:52:33.949Z,62.63
2022-09-03T04:55:36.062Z,62.45
2022-09-03T04:58:37.993Z,62.50
2022-09-03T05:01:40.786Z,62.53
2022-09-03T05:04:43.966Z,62.49
2022-09-03T05:07:45.815Z,62.73
2022-09-03T05:10:47.362Z,63.02
2022-09-03T05:13:50.364Z,62.95
2022-09-03T05:16:52.570Z,62.91
2022-09-03T05:19:56.475Z,63.00
2022-09-03T05:23:01.352Z,62.58
2022-09-03T05:26:11.025Z,62.67
2022-09-03T05:29:13.083Z,62.76
2022-09-03T05:32:16.456Z,62.70
2022-09-03T05:35:27.116Z,62.70
2022-09-03T05:38:32.346Z,62.68
2022-09-03T05:41:35.921Z,62.64
2022-09-03T05:44:38.627Z,62.38
2022-09-03T05:47:40.306Z,62.91
2022-09-03T05:50:43.304Z,62.52
2022-09-03T05:53:46.040Z,62.56
2022-09-03T05:56:47.687Z,62.48
2022-09-03T05:59:49.488Z,62.22
2022-09-03T06:02:51.808Z,62.18
2022-09-03T06:05:54.983Z,62.08
2022-09-03T06:08:58.238Z,61.65
2022-09-03T06:12:00.127Z,61.93
2022-09-03T06:15:06.138Z,61.62
2022-09-03T06:18:07.765Z,61.78
2022-09-03T06:21:10.951Z,61.83
2022-09-03T06:24:15.665Z,61.74
2022-09-03T06:27:21.424Z,60.98
2022-09-03T06:30:24.237Z,60.87
2022-09-03T06:33:25.845Z,61.00
2022-09-03T06:36:28.870Z,60.56
2022-09-03T06:39:30.941Z,60.44
2022-09-03T06:42:32.798Z,60.27
2022-09-03T06:45:34.718Z,60.38
2022-09-03T06:48:37.128Z,59.99
2022-09-03T06:51:40.592Z,59.67
2022-09-03T06:54:42.272Z,59.26
2022-09-03T06:57:44.154Z,59.56
2022-09-03T07:00:52.136Z,59.13
2022-09-03T07:03:57.716Z,59.15
2022-09-03T07:07:01.037Z,58.51
2022-09-03T07:10:02.718Z,58.75
2022-09-03T07:13:07.074Z,58.39
2022-09-03T07:16:10.917Z,58.17
2022-09-03T07:19:13.743Z,57.92
2022-09-03T07:22:19.931Z,57.61
2022-09-03T07:25:22.024Z,57.81
2022-09-03T07:28:24.990Z,57.71
2022-09-03T07:31:28.674Z,57.40
2022-09-03T07:34:30.485Z,57.30
2022-09-03T07:37:33.917Z,56.67
2022-09-03T07:40:35.841Z,56.37
2022-09-03T07:43:40.160Z,56.32
2022-09-03T07:46:42.151Z,56.32
2022-09-03T07:49:45.202Z,55.89
2022-09-03T07:52:56.080Z,55.95
2022-09-03T07:56:01.308Z,56.22
2022-09-03T07:59:03.434Z,55.93
2022-09-03T08:02:06.524Z,56.41
2022-09-03T08:05:11.403Z,55.80
2022-09-03T08:08:15.539Z,55.43
2022-09-03T08:11:19.874Z,55.67
2022-09-03T08:14:23.890Z,55.84
2022-09-03T08:17:25.546Z,55.55
2022-09-03T08:20:27.874Z,55.20
2022-09-03T08:23:30.945Z,55.38
2022-09-03T08:26:33.939Z,54.53
2022-09-03T08:29:35.546Z,54.38
2022-09-03T08:32:37.143Z,54.39
2022-09-03T08:35:42.500Z,54.48
2022-09-03T08:38:46.479Z,54.00
2022-09-03T08:42:02.689Z,53.66
2022-09-03T08:45:08.222Z,53.58
2022-09-03T08:48:13.823Z,53.16
2022-09-03T08:51:17.700Z,52.83
2022-09-03T08:54:22.256Z,53.01
2022-09-03T08:57:25.607Z,52.66
2022-09-03T09:00:29.942Z,53.17
2022-09-03T09:03:37.252Z,52.47
2022-09-03T09:06:46.158Z,52.50
2022-09-03T09:09:51.149Z,52.27
2022-09-03T09:12:59.191Z,51.59
2022-09-03T09:16:06.233Z,51.80
2022-09-03T09:19:14.838Z,51.34
2022-09-03T09:22:24.540Z,51.49
2022-09-03T09:25:27.641Z,51.33
2022-09-03T09:28:32.395Z,50.79
2022-09-03T09:31:34.278Z,51.24
2022-09-03T09:34:37.520Z,51.35
2022-09-03T09:37:46.970Z,51.26
2022-09-03T09:40:50.075Z,51.32
2022-09-03T09:44:00.070Z,51.16
2022-09-03T09:47:13.129Z,50.46
2022-09-03T09:50:24.945Z,50.67
2022-09-03T09:53:30.684Z,50.81
2022-09-03T09:56:33.775Z,50.58
2022-09-03T09:59:35.775Z,50.11
2022-09-03T10:02:40.617Z,49.35
2022-09-03T10:05:44.143Z,48.92
2022-09-03T10:08:46.387Z,49.24
2022-09-03T10:11:58.969Z,48.76
2022-09-03T10:15:03.882Z,48.55
2022-09-03T10:18:09.971Z,48.51
2022-09-03T10:21:12.492Z,48.06
2022-09-03T10:24:39.854Z,47.57
2022-09-03T10:27:45.365Z,47.17
2022-09-03T10:31:03.777Z,46.62
2022-09-03T10:34:10.416Z,46.79
2022-09-03T10:37:19.764Z,46.50
2022-09-03T10:40:31.025Z,45.87
2022-09-03T10:43:46.232Z,45.49
2022-09-03T10:46:57.434Z,45.58
2022-09-03T10:50:03.614Z,45.19
2022-09-03T10:53:11.076Z,45.04
2022-09-03T10:56:15.192Z,44.99
2022-09-03T10:59:37.025Z,45.07
2022-09-03T11:02:56.642Z,44.61
2022-09-03T11:06:04.762Z,44.00
2022-09-03T11:09:12.532Z,44.23
2022-09-03T11:12:21.584Z,43.61
2022-09-03T11:15:27.943Z,43.82
2022-09-03T11:21:33.031Z,43.01
2022-09-03T11:24:41.008Z,42.42
2022-09-03T11:27:56.419Z,42.68
2022-09-03T11:31:13.909Z,42.61
2022-09-03T11:34:22.163Z,42.24
2022-09-03T11:37:26.343Z,42.42
2022-09-03T11:40:33.853Z,42.01
2022-09-03T11:43:36.241Z,41.66
2022-09-03T11:46:40.429Z,41.81
2022-09-03T11:49:45.949Z,40.00
2022-09-03T11:52:48.470Z,40.79
2022-09-03T11:55:55.259Z,41.59
2022-09-03T11:59:02.711Z,41.68
2022-09-03T12:02:13.361Z,40.33
2022-09-03T12:05:19.752Z,40.32
2022-09-03T12:08:54.611Z,40.09
2022-09-03T12:12:06.174Z,40.09
2022-09-03T12:15:11.459Z,39.87
2022-09-03T12:18:22.701Z,40.26
2022-09-03T12:21:25.630Z,40.15
2022-09-03T12:24:34.690Z,40.38
2022-09-03T12:27:39.105Z,40.79
2022-09-03T12:30:40.772Z,40.61
2022-09-03T12:33:46.433Z,40.64
2022-09-03T12:36:50.084Z,41.08
2022-09-03T12:40:08.824Z,40.19
2022-09-03T12:46:38.968Z,39.85
2022-09-03T12:49:43.293Z,40.12
2022-09-03T12:52:46.509Z,40.10
2022-09-03T12:55:51.062Z,40.21
2022-09-03T12:58:56.182Z,39.75
2022-09-03T13:02:00.634Z,39.50
2022-09-03T13:05:04.330Z,39.98
2022-09-03T13:08:08.451Z,40.06
2022-09-03T13:11:10.577Z,39.33
2022-09-03T13:14:17.737Z,40.27
2022-09-03T13:17:27.300Z,40.47
2022-09-03T13:20:34.503Z,41.01
2022-09-03T13:23:40.509Z,40.57
2022-09-03T13:26:46.220Z,40.65
2022-09-03T13:30:05.554Z,40.72
2022-09-03T13:33:11.988Z,40.71
2022-09-03T13:36:17.055Z,41.07
2022-09-03T13:39:24.693Z,41.20
2022-09-03T13:42:33.977Z,41.32
2022-09-03T13:45:37.799Z,41.34
2022-09-03T13:48:59.680Z,41.11
2022-09-03T13:52:04.243Z,41.17
2022-09-03T13:55:09.645Z,41.16
2022-09-03T13:58:18.825Z,41.01
2022-09-03T14:01:25.832Z,41.13
2022-09-03T14:04:32.229Z,40.81
2022-09-03T14:07:52.989Z,41.05
2022-09-03T14:10:58.507Z,40.95
2022-09-03T14:14:08.913Z,41.17
2022-09-03T14:17:13.436Z,40.85
2022-09-03T14:20:19.749Z,40.51
2022-09-03T14:23:29.330Z,40.78
2022-09-03T14:26:39.072Z,40.71
2022-09-03T14:29:50.590Z,40.70
2022-09-03T14:32:57.184Z,40.42
2022-09-03T14:36:12.526Z,40.41
2022-09-03T14:39:34.879Z,39.55
2022-09-03T14:42:45.509Z,39.61
2022-09-03T14:46:03.575Z,39.79
2022-09-03T14:49:16.029Z,39.38
2022-09-03T14:52:25.399Z,39.36
2022-09-03T14:55:35.578Z,39.50
2022-09-03T14:58:48.700Z,39.41
2022-09-03T15:01:54.559Z,39.55
2022-09-03T15:05:09.586Z,39.89
2022-09-03T15:08:18.249Z,39.51
2022-09-03T15:11:22.943Z,39.81
2022-09-03T15:14:30.292Z,39.89
2022-09-03T15:17:42.771Z,39.45
2022-09-03T15:20:49.023Z,39.50
2022-09-03T15:23:57.975Z,39.62
2022-09-03T15:27:11.204Z,39.70
2022-09-03T15:30:15.649Z,39.63
2022-09-03T15:33:22.301Z,39.81
2022-09-03T15:36:26.024Z,39.85
2022-09-03T15:39:30.961Z,39.68
2022-09-03T15:42:32.802Z,39.70
2022-09-03T15:45:37.947Z,40.03
2022-09-03T15:48:46.801Z,40.24
2022-09-03T15:51:56.240Z,40.08
2022-09-03T15:55:02.526Z,39.74
2022-09-03T15:58:09.936Z,39.71
2022-09-03T16:01:27.203Z,39.83
2022-09-03T16:04:44.355Z,40.17
2022-09-03T16:07:56.433Z,40.22
2022-09-03T16:11:03.014Z,40.17
2022-09-03T16:14:11.771Z,40.55
2022-09-03T16:17:21.429Z,40.31
2022-09-03T16:20:25.877Z,40.56
2022-09-03T16:23:30.509Z,40.18
2022-09-03T16:26:36.058Z,40.21
2022-09-03T16:29:37.946Z,40.35
2022-09-03T16:32:53.046Z,40.46
2022-09-03T16:35:59.745Z,40.25
2022-09-03T16:39:03.732Z,40.16
2022-09-03T16:42:12.041Z,40.48
2022-09-03T16:45:23.343Z,40.22
2022-09-03T16:48:32.864Z,40.73
2022-09-03T16:51:39.607Z,40.79
2022-09-03T16:54:57.278Z,40.76
2022-09-03T16:58:09.814Z,41.18
2022-09-03T17:01:18.526Z,40.79
2022-09-03T17:04:32.706Z,40.43
2022-09-03T17:07:57.779Z,40.14
2022-09-03T17:11:07.346Z,40.53
2022-09-03T17:14:19.650Z,40.42
2022-09-03T17:17:27.764Z,40.60
2022-09-03T17:20:47.182Z,40.78
2022-09-03T17:24:04.744Z,41.33
2022-09-03T17:27:13.328Z,41.25
2022-09-03T17:30:26.523Z,41.09
2022-09-03T17:33:46.462Z,40.96
2022-09-03T17:36:55.706Z,40.89
2022-09-03T17:40:04.965Z,40.93
2022-09-03T17:43:11.957Z,40.87
2022-09-03T17:46:22.575Z,41.06
2022-09-03T17:49:26.456Z,41.07
2022-09-03T17:52:32.566Z,41.39
2022-09-03T17:55:36.049Z,41.29
2022-09-03T17:58:41.320Z,41.31
2022-09-03T18:01:48.424Z,41.91
2022-09-03T18:04:53.901Z,42.19
2022-09-03T18:08:00.736Z,42.48
2022-09-03T18:11:07.169Z,42.30
2022-09-03T18:14:20.225Z,42.70
2022-09-03T18:17:31.748Z,42.98
2022-09-03T18:21:21.949Z,42.96
2022-09-03T18:24:50.964Z,43.28
2022-09-03T18:28:19.672Z,43.25
2022-09-03T18:31:42.012Z,43.37
2022-09-03T18:35:02.524Z,43.38
2022-09-03T18:38:23.090Z,43.76
2022-09-03T18:42:01.478Z,44.19
2022-09-03T18:45:33.263Z,44.98
2022-09-03T18:49:07.641Z,44.62
2022-09-03T18:52:34.329Z,44.96
2022-09-03T18:56:04.070Z,45.61
2022-09-03T18:59:33.622Z,45.36
2022-09-03T19:03:01.960Z,45.33
2022-09-03T19:06:29.689Z,45.68
2022-09-03T19:09:59.151Z,45.73
2022-09-03T19:13:31.042Z,46.23
2022-09-03T19:17:02.151Z,46.32
2022-09-03T19:20:28.478Z,46.18
2022-09-03T19:23:48.867Z,46.11
2022-09-03T19:27:46.095Z,46.29
2022-09-03T19:31:03.451Z,46.40
2022-09-03T19:34:27.820Z,46.73
2022-09-03T19:37:53.611Z,46.89
2022-09-03T19:41:18.908Z,46.91
2022-09-03T19:44:52.916Z,47.09
2022-09-03T19:48:20.571Z,46.81
2022-09-03T19:51:44.433Z,46.80
2022-09-03T19:55:09.084Z,46.68
2022-09-03T19:58:42.594Z,46.57
2022-09-03T20:02:04.704Z,46.73
2022-09-03T20:05:26.333Z,46.84
2022-09-03T20:08:46.927Z,47.01
2022-09-03T20:11:50.247Z,47.08
2022-09-03T20:14:52.393Z,47.04
2022-09-03T20:18:02.494Z,47.00
2022-09-03T20:21:10.038Z,47.10
2022-09-03T20:24:19.737Z,47.58
2022-09-03T20:27:30.780Z,47.90
2022-09-03T20:30:35.824Z,48.72
2022-09-03T20:33:47.630Z,48.19
2022-09-03T20:36:59.194Z,48.45
2022-09-03T20:40:08.843Z,48.27
2022-09-03T20:43:33.754Z,48.27
2022-09-03T20:46:45.975Z,48.29
2022-09-03T20:49:53.381Z,48.52
2022-09-03T20:53:02.211Z,48.65
2022-09-03T20:56:10.818Z,48.72
2022-09-03T20:59:17.621Z,48.81
2022-09-03T21:02:26.023Z,49.06
2022-09-03T21:05:31.305Z,49.29
2022-09-03T21:08:48.816Z,49.26
2022-09-03T21:11:53.698Z,49.29
2022-09-03T21:15:01.395Z,49.08
2022-09-03T21:18:06.765Z,49.08
2022-09-03T21:21:15.322Z,49.43
2022-09-03T21:24:19.580Z,49.67
2022-09-03T21:27:24.130Z,49.81
2022-09-03T21:30:28.488Z,49.91
2022-09-03T21:33:31.988Z,49.84
2022-09-03T21:36:38.672Z,50.02
2022-09-03T21:39:42.580Z,50.02
2022-09-03T21:42:46.642Z,50.01
2022-09-03T21:45:53.963Z,50.01
2022-09-03T21:48:58.498Z,49.94
2022-09-03T21:52:04.752Z,50.37
2022-09-03T21:55:12.847Z,50.35
2022-09-03T21:58:21.238Z,50.29
2022-09-03T22:01:32.656Z,50.90
2022-09-03T22:04:34.542Z,51.09
2022-09-03T22:07:44.186Z,51.04
2022-09-03T22:10:52.107Z,51.35
2022-09-03T22:13:59.130Z,51.71
2022-09-03T22:17:10.877Z,51.36
2022-09-03T22:20:14.736Z,51.70
2022-09-03T22:23:21.203Z,51.25
2022-09-03T22:26:27.070Z,51.22
2022-09-03T22:29:36.024Z,51.51
2022-09-03T22:32:44.305Z,52.27
2022-09-03T22:35:54.201Z,52.37
2022-09-03T22:39:03.131Z,52.43
2022-09-03T22:42:12.962Z,52.22
2022-09-03T22:45:29.302Z,52.02
2022-09-03T22:48:54.108Z,51.70
2022-09-03T22:52:06.043Z,51.62
2022-09-03T22:55:13.331Z,51.58
2022-09-03T22:58:20.625Z,51.31
2022-09-03T23:01:25.126Z,51.30
2022-09-03T23:04:30.214Z,51.07
2022-09-03T23:07:36.469Z,51.07
2022-09-03T23:10:44.815Z,51.23
2022-09-03T23:13:48.968Z,51.34
2022-09-03T23:16:55.670Z,51.40
2022-09-03T23:19:59.798Z,51.36
2022-09-03T23:23:08.729Z,51.25
2022-09-03T23:26:13.719Z,51.36
2022-09-03T23:29:19.514Z,51.55
2022-09-03T23:32:21.405Z,51.36
2022-09-03T23:35:26.642Z,51.96
2022-09-03T23:38:39.292Z,52.43
2022-09-03T23:41:47.188Z,52.13
2022-09-03T23:44:57.187Z,52.32
2022-09-03T23:48:05.141Z,52.20
2022-09-03T23:51:12.830Z,52.32
2022-09-03T23:54:37.728Z,52.23
2022-09-03T23:57:40.280Z,52.40
